.
WxDataArchive / Data Records for 2012-11-02
2012-11-01 November 2012 2012-11-03

Data Records for Friday, 02 November 2012

Time	Temp	Chill	HIndex	Humid	Dewpt	 Wind 	HiWind	WindDir	Rain 	Barom 
-----	----	-----	------	-----	-----	------	------	-------	-----	----- 
00:00	41.8	41.8	41.8	53	25.9	0	1	315	0.00	29.843 
00:05	41.6	41.6	41.6	53	25.8	0	1	315	0.00	29.843 
00:10	41.6	41.6	41.6	54	26.2	0	1	315	0.00	29.843 
00:15	41.5	41.5	41.5	54	26.1	0	0	---	0.00	29.842 
00:20	41.5	41.5	41.5	54	26.1	0	1	315	0.00	29.842 
00:25	41.3	41.3	41.3	54	25.9	0	1	315	0.00	29.842 
00:30	41.3	41.3	41.3	54	25.9	0	1	315	0.00	29.839 
00:35	41.3	41.3	41.3	54	25.9	0	1	315	0.00	29.839 
00:40	41.2	41.2	41.2	55	26.3	0	1	315	0.00	29.839 
00:45	41.2	41.2	41.2	56	26.7	0	1	315	0.00	29.838 
00:50	41.1	41.1	41.1	56	26.6	0	0	---	0.00	29.838 
00:55	40.9	40.9	40.9	57	26.9	0	0	---	0.00	29.838 
01:00	40.8	40.8	40.8	58	27.2	0	0	---	0.00	29.840 
01:05	40.6	40.6	40.6	58	27.0	0	1	315	0.00	29.840 
01:10	40.5	40.5	40.5	58	26.9	0	1	315	0.00	29.840 
01:15	40.5	40.5	40.5	58	26.9	0	0	---	0.00	29.839 
01:20	40.5	40.5	40.5	59	27.3	0	1	315	0.00	29.839 
01:25	40.3	40.3	40.3	59	27.1	0	0	---	0.00	29.839 
01:30	40.3	40.3	40.3	59	27.1	0	0	---	0.00	29.838 
01:35	40.3	40.3	40.3	59	27.1	0	0	---	0.00	29.838 
01:40	40.3	40.3	40.3	59	27.1	0	0	---	0.00	29.838 
01:45	40.3	40.3	40.3	59	27.1	0	1	315	0.00	29.837 
01:50	40.3	40.3	40.3	59	27.1	0	1	315	0.00	29.837 
01:55	40.3	40.3	40.3	59	27.1	0	0	---	0.00	29.837 
02:00	40.3	40.3	40.3	59	27.1	0	1	315	0.00	29.840 
02:05	40.3	40.3	40.3	59	27.1	0	1	315	0.00	29.840 
02:10	40.3	40.3	40.3	59	27.1	0	1	315	0.00	29.840 
02:15	40.2	40.2	40.2	59	27.0	0	0	---	0.00	29.831 
02:20	40.2	40.2	40.2	59	27.0	0	1	315	0.00	29.831 
02:25	40.1	40.1	40.1	60	27.3	0	0	---	0.00	29.831 
02:30	40.1	40.1	40.1	60	27.3	0	1	315	0.00	29.834 
02:35	40.1	40.1	40.1	60	27.3	0	1	315	0.00	29.834 
02:40	40.2	40.2	40.2	59	27.0	0	1	315	0.00	29.834 
02:45	40.3	40.3	40.3	59	27.1	0	1	315	0.00	29.837 
02:50	40.3	40.3	40.3	59	27.1	0	1	315	0.00	29.837 
02:55	40.3	40.3	40.3	59	27.1	0	1	315	0.00	29.837 
03:00	40.3	40.3	40.3	59	27.1	0	1	315	0.00	29.843 
03:05	40.5	40.5	40.5	59	27.3	0	1	315	0.00	29.843 
03:10	40.5	40.5	40.5	59	27.3	0	1	315	0.00	29.843 
03:15	40.5	40.5	40.5	59	27.3	0	1	315	0.00	29.843 
03:20	40.5	40.5	40.5	59	27.3	0	2	315	0.00	29.843 
03:25	40.6	40.6	40.6	59	27.4	1	3	315	0.00	29.843 
03:30	40.8	40.8	40.8	59	27.6	0	2	315	0.00	29.844 
03:35	40.9	40.9	40.9	59	27.7	0	1	315	0.00	29.844 
03:40	40.9	40.9	40.9	60	28.1	0	1	315	0.00	29.844 
03:45	40.9	40.9	40.9	60	28.1	0	2	315	0.00	29.850 
03:50	40.9	40.9	40.9	61	28.5	0	1	315	0.00	29.850 
03:55	41.1	41.1	41.1	61	28.7	0	2	315	0.00	29.850 
04:00	41.1	41.1	41.1	61	28.7	0	3	315	0.00	29.855 
04:05	41.1	41.1	41.1	62	29.1	0	1	315	0.00	29.855 
04:10	40.9	40.9	40.9	62	28.9	0	1	315	0.00	29.855 
04:15	40.9	40.9	40.9	63	29.3	0	1	315	0.00	29.856 
04:20	40.6	40.6	40.6	64	29.4	0	1	315	0.00	29.856 
04:25	40.3	40.3	40.3	65	29.5	0	1	315	0.00	29.856 
04:30	40.1	40.1	40.1	66	29.7	0	2	315	0.00	29.857 
04:35	39.9	39.9	39.9	67	29.8	0	2	315	0.00	29.857 
04:40	39.6	39.6	39.6	67	29.6	0	2	315	0.00	29.857 
04:45	39.5	39.5	39.5	68	29.8	0	1	315	0.00	29.859 
04:50	39.2	39.2	39.2	69	29.9	0	1	315	0.00	29.859 
04:55	38.9	38.9	38.9	69	29.6	0	1	315	0.00	29.859 
05:00	38.8	38.8	38.8	70	29.9	0	1	315	0.00	29.868 
05:05	38.5	38.5	38.5	71	29.9	0	1	315	0.00	29.868 
05:10	38.3	38.3	38.3	72	30.1	0	1	315	0.00	29.868 
05:15	38.0	38.0	38.0	73	30.1	0	1	315	0.00	29.876 
05:20	38.0	38.0	38.0	73	30.1	0	1	315	0.00	29.876 
05:25	37.9	37.9	37.9	74	30.4	0	1	315	0.00	29.876 
05:30	37.8	37.8	37.8	74	30.3	0	1	315	0.00	29.880 
05:35	37.8	37.8	37.8	75	30.6	0	1	315	0.00	29.880 
05:40	37.6	37.6	37.6	75	30.4	0	1	315	0.00	29.880 
05:45	37.6	37.6	37.6	76	30.7	0	1	315	0.00	29.886 
05:50	37.6	37.6	37.6	76	30.7	0	1	315	0.00	29.886 
05:55	37.5	37.5	37.5	76	30.6	0	1	315	0.00	29.886 
06:00	37.3	37.3	37.3	76	30.4	0	0	---	0.00	29.891 
06:05	37.0	37.0	37.0	77	30.5	0	0	---	0.00	29.891 
06:10	36.9	36.9	36.9	77	30.4	0	0	---	0.00	29.891 
06:15	36.6	36.6	36.6	77	30.1	0	0	---	0.00	29.894 
06:20	36.3	36.3	36.3	78	30.1	0	0	---	0.00	29.894 
06:25	36.2	36.2	36.2	78	30.0	0	0	---	0.00	29.894 
06:30	35.9	35.9	35.9	79	30.0	0	0	---	0.00	29.900 
06:35	35.8	35.8	35.8	79	29.9	0	0	---	0.00	29.900 
06:40	35.6	35.6	35.6	80	30.1	0	0	---	0.00	29.900 
06:45	35.5	35.5	35.5	80	30.0	0	0	---	0.00	29.906 
06:50	35.5	35.5	35.5	81	30.3	0	1	315	0.00	29.906 
06:55	35.3	35.3	35.3	81	30.1	0	0	---	0.00	29.906 
07:00	35.2	35.2	35.2	81	30.0	0	0	---	0.00	29.911 
07:05	35.2	35.2	35.2	81	30.0	0	0	---	0.00	29.911 
07:10	35.0	35.0	35.0	81	29.8	0	0	---	0.00	29.911 
07:15	34.9	34.9	34.9	81	29.7	0	0	---	0.00	29.920 
07:20	34.7	34.7	34.7	81	29.5	0	0	---	0.00	29.920 
07:25	34.6	34.6	34.6	82	29.7	0	0	---	0.00	29.920 
07:30	34.4	34.4	34.4	82	29.5	0	0	---	0.00	29.929 
07:35	34.3	34.3	34.3	82	29.4	0	0	---	0.00	29.929 
07:40	34.1	34.1	34.1	82	29.2	0	0	---	0.00	29.929 
07:45	34.0	34.0	34.0	83	29.4	0	0	---	0.00	29.931 
07:50	33.8	33.8	33.8	83	29.2	0	0	---	0.00	29.931 
07:55	33.5	33.5	33.5	83	28.9	0	0	---	0.00	29.931 
08:00	33.4	33.4	33.4	83	28.8	0	0	---	0.00	29.932 
08:05	33.4	33.4	33.4	84	29.1	0	0	---	0.00	29.932 
08:10	33.4	33.4	33.4	84	29.1	0	0	---	0.00	29.932 
08:15	33.4	33.4	33.4	84	29.1	0	0	---	0.00	29.937 
08:20	33.2	33.2	33.2	84	28.9	0	0	---	0.00	29.937 
08:25	33.2	33.2	33.2	84	28.9	0	0	---	0.00	29.937 
08:30	33.2	33.2	33.2	84	28.9	0	1	315	0.00	29.946 
08:35	33.4	33.4	33.4	84	29.1	0	0	---	0.00	29.946 
08:40	33.5	33.5	33.5	84	29.2	0	1	315	0.00	29.946 
08:45	33.8	33.8	33.8	83	29.2	0	1	315	0.00	29.948 
08:50	34.1	34.1	34.1	83	29.5	0	1	315	0.00	29.948 
08:55	34.6	34.6	34.6	83	30.0	0	2	315	0.00	29.948 
09:00	35.0	35.0	35.0	81	29.8	0	2	315	0.00	29.953 
09:05	35.6	35.6	35.6	80	30.1	0	2	315	0.00	29.953 
09:10	36.0	36.0	36.0	79	30.1	0	2	315	0.00	29.953 
09:15	36.3	36.3	36.3	78	30.1	0	2	315	0.00	29.963 
09:20	36.8	36.8	36.8	77	30.3	1	3	315	0.00	29.963 
09:25	37.0	37.0	37.0	76	30.2	1	3	315	0.00	29.963 
09:30	37.5	37.5	37.5	74	30.0	1	3	315	0.00	29.969 
09:35	37.9	37.9	37.9	73	30.0	1	3	315	0.00	29.969 
09:40	38.2	38.2	38.2	72	30.0	1	3	315	0.00	29.969 
09:45	38.6	38.6	38.6	70	29.7	1	3	315	0.00	29.972 
09:50	39.1	39.1	39.1	70	30.2	1	4	338	0.00	29.972 
09:55	39.3	39.3	39.3	69	30.0	2	4	315	0.00	29.972 
10:00	39.6	39.6	39.6	68	29.9	3	5	315	0.00	29.976 
10:05	40.1	40.1	40.1	66	29.7	2	5	315	0.00	29.976 
10:10	40.3	40.3	40.3	66	29.9	1	4	338	0.00	29.976 
10:15	40.6	40.6	40.6	64	29.4	2	5	338	0.00	29.980 
10:20	40.8	40.8	40.8	63	29.2	3	7	338	0.00	29.980 
10:25	41.1	41.1	41.1	64	29.9	2	6	315	0.00	29.980 
10:30	41.1	41.1	41.1	63	29.5	3	9	338	0.00	29.986 
10:35	41.2	41.2	41.2	63	29.6	2	6	338	0.00	29.986 
10:40	41.3	41.3	41.3	63	29.7	3	7	338	0.00	29.986 
10:45	41.5	41.5	41.5	63	29.9	2	5	315	0.00	29.988 
10:50	41.9	41.9	41.9	63	30.2	2	4	270	0.00	29.988 
10:55	42.1	42.1	42.1	63	30.4	2	6	338	0.00	29.988 
11:00	42.3	42.3	42.3	61	29.8	3	9	315	0.00	29.990 
11:05	42.3	42.3	42.3	61	29.8	2	6	338	0.00	29.990 
11:10	42.9	42.9	42.9	61	30.4	2	5	315	0.00	29.990 
11:15	43.1	43.1	43.1	60	30.2	1	4	338	0.00	29.993 
11:20	42.9	42.9	42.9	59	29.6	3	10	0	0.00	29.993 
11:25	43.2	43.2	43.2	58	29.4	2	7	0	0.00	29.993 
11:30	43.2	43.2	43.2	59	29.9	2	6	315	0.00	29.993 
11:35	43.3	43.3	43.3	58	29.5	2	7	315	0.00	29.993 
11:40	43.6	43.6	43.6	58	29.8	2	5	315	0.00	29.993 
11:45	43.9	43.9	43.9	57	29.7	3	7	315	0.00	30.000 
11:50	43.9	43.9	43.9	57	29.7	2	5	0	0.00	30.000 
11:55	43.6	43.6	43.6	57	29.4	2	5	292	0.00	30.000 
12:00	43.2	43.2	43.2	57	29.0	3	6	315	0.00	30.006 
12:05	43.3	43.3	43.3	57	29.1	3	7	292	0.00	30.006 
12:10	43.5	43.5	43.5	58	29.7	2	6	338	0.00	30.006 
12:15	44.2	44.2	44.2	58	30.4	2	6	315	0.00	30.008 
12:20	44.1	44.1	44.1	56	29.4	1	6	0	0.00	30.008 
12:25	43.6	43.6	43.6	57	29.4	1	5	315	0.00	30.008 
12:30	43.6	43.6	43.6	57	29.4	2	4	292	0.00	30.010 
12:35	43.5	43.5	43.5	56	28.9	3	7	338	0.00	30.010 
12:40	43.5	43.5	43.5	57	29.3	2	4	338	0.00	30.010 
12:45	43.5	43.5	43.5	56	28.9	3	9	292	0.00	30.006 
12:50	44.1	44.1	44.1	56	29.4	2	5	315	0.00	30.006 
12:55	44.1	44.1	44.1	56	29.4	2	6	338	0.00	30.006 
13:00	43.8	43.8	43.8	55	28.7	2	6	315	0.00	30.006 
13:05	44.3	44.3	44.3	54	28.7	2	5	338	0.00	30.006 
13:10	44.5	44.5	44.5	54	28.9	2	4	338	0.00	30.006 
13:15	44.2	44.2	44.2	54	28.6	1	4	292	0.00	30.005 
13:20	44.5	44.5	44.5	56	29.8	2	5	292	0.00	30.005 
13:25	45.2	45.2	45.2	55	30.0	1	4	270	0.00	30.005 
13:30	45.8	45.8	45.8	54	30.1	1	3	270	0.00	30.003 
13:35	46.0	46.0	46.0	52	29.4	2	4	270	0.00	30.003 
13:40	45.8	45.8	45.8	51	28.7	2	7	292	0.00	30.003 
13:45	45.4	45.4	45.4	51	28.3	2	4	0	0.00	30.004 
13:50	45.2	45.2	45.2	53	29.1	1	3	292	0.00	30.004 
13:55	45.2	45.2	45.2	53	29.1	2	5	315	0.00	30.004 
14:00	44.9	44.9	44.9	53	28.8	1	3	315	0.00	30.006 
14:05	45.5	45.5	45.5	54	29.8	1	4	315	0.00	30.006 
14:10	45.5	45.5	45.5	52	28.9	1	4	338	0.00	30.006 
14:15	45.8	45.8	45.8	53	29.7	2	5	315	0.00	30.004 
14:20	46.1	46.1	46.1	52	29.5	2	5	338	0.00	30.004 
14:25	46.4	46.4	46.4	52	29.7	2	6	292	0.00	30.004 
14:30	46.2	46.2	46.2	50	28.6	2	6	338	0.00	30.005 
14:35	46.2	46.2	46.2	52	29.6	1	4	292	0.00	30.005 
14:40	46.1	46.1	46.1	51	29.0	2	8	292	0.00	30.005 
14:45	45.7	45.7	45.7	52	29.1	1	5	315	0.00	30.005 
14:50	46.4	46.4	46.4	52	29.7	1	3	292	0.00	30.005 
14:55	46.5	46.5	46.5	51	29.4	1	4	315	0.00	30.005 
15:00	46.2	46.2	46.2	51	29.1	2	5	338	0.00	30.008 
15:05	46.0	46.0	46.0	51	28.9	1	5	315	0.00	30.008 
15:10	45.8	45.8	45.8	52	29.2	1	3	315	0.00	30.008 
15:15	45.8	45.8	45.8	51	28.7	1	5	338	0.00	30.010 
15:20	45.7	45.7	45.7	51	28.6	2	7	338	0.00	30.010 
15:25	45.7	45.7	45.7	51	28.6	1	4	315	0.00	30.010 
15:30	46.1	46.1	46.1	50	28.5	2	4	315	0.00	30.014 
15:35	46.2	46.2	46.2	50	28.6	1	6	338	0.00	30.014 
15:40	46.5	46.5	46.5	49	28.4	2	5	338	0.00	30.014 
15:45	46.4	46.4	46.4	49	28.3	3	6	315	0.00	30.016 
15:50	46.2	46.2	46.2	50	28.6	2	5	315	0.00	30.016 
15:55	46.2	46.2	46.2	50	28.6	1	3	315	0.00	30.016 
16:00	46.1	46.1	46.1	50	28.5	1	3	315	0.00	30.018 
16:05	46.1	46.1	46.1	50	28.5	2	5	270	0.00	30.018 
16:10	46.0	46.0	46.0	51	28.9	0	1	292	0.00	30.018 
16:15	46.0	46.0	46.0	51	28.9	1	4	292	0.00	30.020 
16:20	46.0	46.0	46.0	50	28.4	1	4	292	0.00	30.020 
16:25	45.8	45.8	45.8	51	28.7	1	4	292	0.00	30.020 
16:30	45.8	45.8	45.8	51	28.7	1	3	315	0.00	30.022 
16:35	45.8	45.8	45.8	51	28.7	1	4	315	0.00	30.022 
16:40	45.7	45.7	45.7	50	28.1	2	5	315	0.00	30.022 
16:45	45.5	45.5	45.5	50	28.0	1	5	292	0.00	30.024 
16:50	45.4	45.4	45.4	51	28.3	1	5	338	0.00	30.024 
16:55	45.4	45.4	45.4	52	28.8	1	4	315	0.00	30.024 
17:00	45.4	45.4	45.4	52	28.8	1	4	292	0.00	30.031 
17:05	45.2	45.2	45.2	51	28.2	2	4	315	0.00	30.031 
17:10	45.2	45.2	45.2	51	28.2	1	4	315	0.00	30.031 
17:15	45.2	45.2	45.2	51	28.2	2	6	315	0.00	30.034 
17:20	45.1	45.1	45.1	51	28.1	1	5	338	0.00	30.034 
17:25	45.1	45.1	45.1	51	28.1	1	3	338	0.00	30.034 
17:30	45.1	45.1	45.1	51	28.1	1	4	338	0.00	30.034 
17:35	45.1	45.1	45.1	52	28.5	1	4	338	0.00	30.034 
17:40	45.1	45.1	45.1	52	28.5	0	2	270	0.00	30.034 
17:45	44.9	44.9	44.9	52	28.4	1	4	315	0.00	30.037 
17:50	44.9	44.9	44.9	52	28.4	2	4	270	0.00	30.037 
17:55	44.9	44.9	44.9	53	28.8	1	3	270	0.00	30.037 
18:00	44.8	44.8	44.8	53	28.7	1	5	270	0.00	30.039 
18:05	44.6	44.6	44.6	53	28.5	1	5	270	0.00	30.039 
18:10	44.6	44.6	44.6	53	28.5	0	2	270	0.00	30.039 
18:15	44.5	44.5	44.5	54	28.9	0	3	270	0.00	30.040 
18:20	44.5	44.5	44.5	54	28.9	1	3	270	0.00	30.040 
18:25	44.3	44.3	44.3	54	28.7	0	3	270	0.00	30.040 
18:30	44.2	44.2	44.2	54	28.6	0	1	270	0.00	30.047 
18:35	44.2	44.2	44.2	54	28.6	0	2	270	0.00	30.047 
18:40	44.2	44.2	44.2	54	28.6	0	2	270	0.00	30.047 
18:45	44.1	44.1	44.1	54	28.5	0	2	270	0.00	30.050 
18:50	44.1	44.1	44.1	54	28.5	0	2	270	0.00	30.050 
18:55	44.1	44.1	44.1	55	29.0	0	1	270	0.00	30.050 
19:00	44.1	44.1	44.1	55	29.0	0	1	270	0.00	30.057 
19:05	43.9	43.9	43.9	55	28.8	0	1	270	0.00	30.057 
19:10	43.9	43.9	43.9	55	28.8	0	2	270	0.00	30.057 
19:15	43.8	43.8	43.8	56	29.1	0	1	270	0.00	30.063 
19:20	43.8	43.8	43.8	55	28.7	1	4	270	0.00	30.063 
19:25	43.6	43.6	43.6	55	28.5	0	2	270	0.00	30.063 
19:30	43.6	43.6	43.6	55	28.5	1	3	270	0.00	30.071 
19:35	43.6	43.6	43.6	55	28.5	1	4	292	0.00	30.071 
19:40	43.5	43.5	43.5	55	28.4	1	5	292	0.00	30.071 
19:45	43.2	43.2	43.2	55	28.1	1	3	292	0.00	30.073 
19:50	43.1	43.1	43.1	55	28.0	1	3	292	0.00	30.073 
19:55	42.9	42.9	42.9	56	28.3	0	1	292	0.00	30.073 
20:00	42.8	42.8	42.8	56	28.2	1	3	292	0.00	30.075 
20:05	42.6	42.6	42.6	57	28.4	0	1	292	0.00	30.075 
20:10	42.6	42.6	42.6	57	28.4	0	2	292	0.00	30.075 
20:15	42.5	42.5	42.5	57	28.4	0	5	292	0.00	30.072 
20:20	42.5	42.5	42.5	57	28.4	1	2	338	0.00	30.072 
20:25	42.3	42.3	42.3	58	28.6	0	1	338	0.00	30.072 
20:30	42.3	42.3	42.3	58	28.6	1	2	338	0.00	30.076 
20:35	42.2	42.2	42.2	58	28.5	0	1	338	0.00	30.076 
20:40	42.2	42.2	42.2	58	28.5	1	3	338	0.00	30.076 
20:45	42.2	42.2	42.2	58	28.5	0	2	338	0.00	30.076 
20:50	42.1	42.1	42.1	59	28.8	0	1	338	0.00	30.076 
20:55	41.9	41.9	41.9	59	28.6	0	1	338	0.00	30.076 
21:00	41.9	41.9	41.9	59	28.6	0	1	338	0.00	30.077 
21:05	41.8	41.8	41.8	60	28.9	0	2	338	0.00	30.077 
21:10	41.8	41.8	41.8	60	28.9	0	1	338	0.00	30.077 
21:15	41.8	41.8	41.8	60	28.9	0	2	338	0.00	30.074 
21:20	41.6	41.6	41.6	61	29.2	0	3	338	0.00	30.074 
21:25	41.6	41.6	41.6	61	29.2	0	1	338	0.00	30.074 
21:30	41.5	41.5	41.5	61	29.1	0	1	338	0.00	30.074 
21:35	41.3	41.3	41.3	62	29.3	0	1	338	0.00	30.074 
21:40	41.3	41.3	41.3	62	29.3	0	1	338	0.00	30.074 
21:45	41.2	41.2	41.2	62	29.2	0	1	338	0.00	30.083 
21:50	41.1	41.1	41.1	62	29.1	0	1	338	0.00	30.083 
21:55	41.1	41.1	41.1	63	29.5	0	1	338	0.00	30.083 
22:00	41.1	41.1	41.1	63	29.5	0	1	338	0.00	30.085 
22:05	40.9	40.9	40.9	64	29.7	0	1	338	0.00	30.085 
22:10	40.9	40.9	40.9	64	29.7	0	1	338	0.00	30.085 
22:15	40.8	40.8	40.8	65	30.0	0	1	338	0.00	30.085 
22:20	40.8	40.8	40.8	65	30.0	0	1	338	0.00	30.085 
22:25	40.6	40.6	40.6	65	29.8	0	1	338	0.00	30.085 
22:30	40.6	40.6	40.6	65	29.8	0	1	338	0.00	30.086 
22:35	40.5	40.5	40.5	66	30.0	0	1	338	0.00	30.086 
22:40	40.5	40.5	40.5	66	30.0	0	1	338	0.00	30.086 
22:45	40.3	40.3	40.3	67	30.2	0	1	338	0.00	30.086 
22:50	40.2	40.2	40.2	67	30.1	0	1	338	0.00	30.086 
22:55	40.2	40.2	40.2	67	30.1	0	1	338	0.00	30.086 
23:00	40.2	40.2	40.2	68	30.5	0	1	338	0.00	30.089 
23:05	40.1	40.1	40.1	68	30.4	0	1	338	0.00	30.089 
23:10	40.1	40.1	40.1	69	30.8	0	1	338	0.00	30.089 
23:15	40.1	40.1	40.1	69	30.8	0	1	338	0.00	30.099 
23:20	39.9	39.9	39.9	69	30.6	0	1	338	0.00	30.099 
23:25	39.9	39.9	39.9	69	30.6	0	1	338	0.00	30.099 
23:30	39.9	39.9	39.9	70	30.9	0	1	338	0.00	30.100 
23:35	39.9	39.9	39.9	70	30.9	0	1	338	0.00	30.100 
23:40	39.8	39.8	39.8	70	30.8	0	1	338	0.00	30.100 
23:45	39.8	39.8	39.8	70	30.8	0	0	---	0.00	30.101 
23:50	39.8	39.8	39.8	71	31.2	0	1	338	0.00	30.101 
23:55	39.8	39.8	39.8	71	31.2	0	1	338	0.00	30.101 

CoCoRaHS
IN-AL-39
A2 Web Hosting
Creative Commons License
GoDaddy
search engine by freefind advanced

loaded 2018-11-15 13:31:18 • last modified 2010-11-18 10:43:29
Privacy PolicyDisclaimer
• wx.awcolley.com is powered by PmWiki v.2002016 •
• all content (unless otherwise noted) © 2018 A W Colley